Time;durP1;ratioP1;P1;durP2;ratioP2;P2;SDS_P1;SDS_P2;PMS_P1;PMS_P2;Temp;Humidity;BMP_temperature;BMP_pressure;BME280_temperature;BME280_humidity;BME280_pressure;Samples;Min_cycle;Max_cycle;Signal;HPM_P1;HPM_P2
2023/09/25 00:00:54;;;;;;;2.47;2.27;;;;;;;;;;4936708;29;20223;-84
2023/09/25 00:03:20;;;;;;;3.33;2.40;;;;;;;;;;4951925;28;20278;-83
2023/09/25 00:05:48;;;;;;;2.13;2.03;;;;;;;;;;4936921;28;20789;-85
2023/09/25 00:08:18;;;;;;;2.27;2.03;;;;;;;;;;4965400;28;20215;-83
2023/09/25 00:10:44;;;;;;;2.20;2.10;;;;;;;;;;4933194;29;20323;-82
2023/09/25 00:13:09;;;;;;;2.07;1.97;;;;;;;;;;4959398;28;20226;-83
2023/09/25 00:15:37;;;;;;;3.03;1.93;;;;;;;;;;4961839;28;20234;-83
2023/09/25 00:18:05;;;;;;;2.43;2.23;;;;;;;;;;4930578;29;20413;-82
2023/09/25 00:20:33;;;;;;;2.50;2.20;;;;;;;;;;4952960;28;20258;-84
2023/09/25 00:23:01;;;;;;;2.33;2.13;;;;;;;;;;4931008;29;20217;-82
2023/09/25 00:25:28;;;;;;;2.47;2.27;;;;;;;;;;4961900;28;20215;-82
2023/09/25 00:27:56;;;;;;;2.10;2.00;;;;;;;;;;4931844;28;20227;-81
2023/09/25 00:30:22;;;;;;;2.60;2.00;;;;;;;;;;4961949;28;20293;-83
2023/09/25 00:32:50;;;;;;;2.40;2.20;;;;;;;;;;4930789;29;20219;-81
2023/09/25 00:35:16;;;;;;;2.50;2.30;;;;;;;;;;4951093;28;20207;-82
2023/09/25 00:37:42;;;;;;;2.40;2.20;;;;;;;;;;4953609;28;20278;-83
2023/09/25 00:40:14;;;;;;;2.60;2.40;;;;;;;;;;4943149;28;20706;-83
2023/09/25 00:42:47;;;;;;;2.10;2.00;;;;;;;;;;4951088;28;20219;-82
2023/09/25 00:45:14;;;;;;;2.10;1.90;;;;;;;;;;4943409;28;20233;-82
2023/09/25 00:47:42;;;;;;;3.77;2.47;;;;;;;;;;4963877;28;20225;-82
2023/09/25 00:50:13;;;;;;;2.40;2.20;;;;;;;;;;4948528;28;20246;-82
2023/09/25 00:52:44;;;;;;;2.43;2.20;;;;;;;;;;4947650;28;20302;-84
2023/09/25 00:55:12;;;;;;;2.93;2.13;;;;;;;;;;4961747;28;20229;-83
2023/09/25 00:57:38;;;;;;;3.03;2.30;;;;;;;;;;4977314;28;20223;-83
2023/09/25 01:00:11;;;;;;;2.13;1.93;;;;;;;;;;4945080;28;20227;-82
2023/09/25 01:02:38;;;;;;;2.50;2.30;;;;;;;;;;4974086;28;20223;-82
2023/09/25 01:05:08;;;;;;;2.60;2.40;;;;;;;;;;4946570;28;20221;-82
2023/09/25 01:07:37;;;;;;;3.63;2.30;;;;;;;;;;4957581;28;20227;-83
2023/09/25 01:10:05;;;;;;;2.30;2.10;;;;;;;;;;4950593;28;20245;-83
2023/09/25 01:12:34;;;;;;;4.27;2.27;;;;;;;;;;4961039;28;20230;-81
2023/09/25 01:15:04;;;;;;;2.20;2.10;;;;;;;;;;4915006;29;20234;-83
2023/09/25 01:17:30;;;;;;;2.50;2.30;;;;;;;;;;4948113;28;20225;-83
2023/09/25 01:19:59;;;;;;;2.47;2.23;;;;;;;;;;4927711;29;20211;-82
2023/09/25 01:22:25;;;;;;;2.20;2.00;;;;;;;;;;4942663;28;20278;-84
2023/09/25 01:24:51;;;;;;;2.53;2.33;;;;;;;;;;4942905;29;20318;-82
2023/09/25 01:27:17;;;;;;;2.60;2.40;;;;;;;;;;4946754;28;20357;-82
2023/09/25 01:29:44;;;;;;;2.30;2.10;;;;;;;;;;4928851;29;20235;-83
2023/09/25 01:32:12;;;;;;;2.30;2.10;;;;;;;;;;4939972;28;20218;-82
2023/09/25 01:34:38;;;;;;;2.93;2.07;;;;;;;;;;4971687;28;20270;-84
2023/09/25 01:37:04;;;;;;;1.97;1.87;;;;;;;;;;4932903;28;20872;-81
2023/09/25 01:39:32;;;;;;;2.20;2.00;;;;;;;;;;4943301;29;20307;-82
2023/09/25 01:42:03;;;;;;;2.40;2.20;;;;;;;;;;4950451;29;20219;-83
2023/09/25 01:44:29;;;;;;;2.33;2.13;;;;;;;;;;4959504;28;20223;-84
2023/09/25 01:46:58;;;;;;;4.43;1.93;;;;;;;;;;4948538;29;20205;-83
2023/09/25 01:49:27;;;;;;;3.00;2.30;;;;;;;;;;4961069;28;20233;-83
2023/09/25 01:51:53;;;;;;;3.03;2.37;;;;;;;;;;4960444;28;20244;-82
2023/09/25 01:54:22;;;;;;;5.50;2.00;;;;;;;;;;4948985;28;20218;-83
2023/09/25 01:56:50;;;;;;;6.27;2.10;;;;;;;;;;4961226;28;20227;-82
2023/09/25 01:59:17;;;;;;;2.67;2.23;;;;;;;;;;4961125;28;20218;-82
2023/09/25 02:01:43;;;;;;;2.40;2.20;;;;;;;;;;4943524;28;20226;-83
2023/09/25 02:04:13;;;;;;;1.97;1.77;;;;;;;;;;4930723;28;20218;-82
2023/09/25 02:06:43;;;;;;;8.50;2.07;;;;;;;;;;4943202;29;20293;-83
2023/09/25 02:09:11;;;;;;;2.17;2.03;;;;;;;;;;4959016;28;20298;-82
2023/09/25 02:11:39;;;;;;;2.10;2.00;;;;;;;;;;4945207;28;20234;-82
2023/09/25 02:14:07;;;;;;;2.47;2.10;;;;;;;;;;4945242;28;20215;-83
2023/09/25 02:16:35;;;;;;;4.33;2.10;;;;;;;;;;4963895;28;20230;-82
2023/09/25 02:19:06;;;;;;;2.80;2.10;;;;;;;;;;4951288;28;20221;-84
2023/09/25 02:21:34;;;;;;;2.07;1.90;;;;;;;;;;4933812;29;20239;-83
2023/09/25 02:24:01;;;;;;;2.83;2.30;;;;;;;;;;4947173;29;20254;-84
2023/09/25 02:26:27;;;;;;;1.97;1.83;;;;;;;;;;4963132;28;20230;-84
2023/09/25 02:29:00;;;;;;;2.17;2.07;;;;;;;;;;4949767;28;20215;-84
2023/09/25 02:31:30;;;;;;;2.00;1.90;;;;;;;;;;4937274;28;20230;-84
2023/09/25 02:34:03;;;;;;;2.60;2.20;;;;;;;;;;4952223;28;20290;-83
2023/09/25 02:36:28;;;;;;;2.47;2.27;;;;;;;;;;4946675;28;20231;-83
2023/09/25 02:38:58;;;;;;;3.00;2.47;;;;;;;;;;4952948;28;20214;-84
2023/09/25 02:41:24;;;;;;;5.70;2.33;;;;;;;;;;4939169;28;20223;-83
2023/09/25 02:43:49;;;;;;;2.73;2.53;;;;;;;;;;4957283;28;20245;-83
2023/09/25 02:46:19;;;;;;;2.60;2.40;;;;;;;;;;4957598;28;20282;-84
2023/09/25 02:48:45;;;;;;;2.50;2.30;;;;;;;;;;4954010;28;20755;-83
2023/09/25 02:51:11;;;;;;;3.03;2.73;;;;;;;;;;4960822;28;20214;-84
2023/09/25 02:53:39;;;;;;;2.30;2.20;;;;;;;;;;4952009;28;20243;-85
2023/09/25 02:56:06;;;;;;;2.90;2.70;;;;;;;;;;4920295;28;20233;-83
2023/09/25 02:58:32;;;;;;;2.60;2.40;;;;;;;;;;4948929;28;20703;-82
2023/09/25 03:01:00;;;;;;;4.77;2.40;;;;;;;;;;4949253;28;20254;-83
2023/09/25 03:03:29;;;;;;;2.87;2.60;;;;;;;;;;4976545;28;20224;-83
2023/09/25 03:05:54;;;;;;;2.43;2.30;;;;;;;;;;4967712;28;20214;-85
2023/09/25 03:08:22;;;;;;;2.60;2.40;;;;;;;;;;4963019;28;20223;-83
2023/09/25 03:10:48;;;;;;;2.87;2.50;;;;;;;;;;4956903;28;20231;-83
2023/09/25 03:13:18;;;;;;;2.77;2.57;;;;;;;;;;4932410;28;20215;-84
2023/09/25 03:15:46;;;;;;;2.60;2.43;;;;;;;;;;4964417;28;20235;-85
2023/09/25 03:18:12;;;;;;;2.67;2.47;;;;;;;;;;4957344;28;20219;-86
2023/09/25 03:20:40;;;;;;;2.57;2.47;;;;;;;;;;4967170;28;20234;-83
2023/09/25 03:23:06;;;;;;;2.60;2.50;;;;;;;;;;4949766;28;20615;-83
2023/09/25 03:25:40;;;;;;;3.30;2.93;;;;;;;;;;4961840;28;20237;-82
2023/09/25 03:28:07;;;;;;;3.63;3.00;;;;;;;;;;4950921;28;20239;-82
2023/09/25 03:30:33;;;;;;;3.70;2.70;;;;;;;;;;4948148;28;20367;-83
2023/09/25 03:33:01;;;;;;;3.27;2.70;;;;;;;;;;4922162;29;20262;-84
2023/09/25 03:35:26;;;;;;;3.20;2.60;;;;;;;;;;4930312;28;20241;-82
2023/09/25 03:37:57;;;;;;;2.90;2.60;;;;;;;;;;4966385;28;20222;-84
2023/09/25 03:40:28;;;;;;;2.73;2.37;;;;;;;;;;4943698;28;20408;-82
2023/09/25 03:42:54;;;;;;;3.00;2.80;;;;;;;;;;4944827;29;20366;-84
2023/09/25 03:45:24;;;;;;;2.50;2.40;;;;;;;;;;4962311;28;20246;-83
2023/09/25 03:47:54;;;;;;;2.80;2.60;;;;;;;;;;4960013;28;20347;-84
2023/09/25 03:50:26;;;;;;;2.80;2.60;;;;;;;;;;4944361;28;20462;-79
2023/09/25 03:52:51;;;;;;;2.90;2.70;;;;;;;;;;4976329;28;20236;-78
2023/09/25 03:55:17;;;;;;;3.87;2.30;;;;;;;;;;4975747;28;20289;-79
2023/09/25 03:57:43;;;;;;;2.37;2.27;;;;;;;;;;4960803;28;20226;-79
2023/09/25 04:03:57;;;;;;;3.50;2.60;;;;;;;;;;4952518;28;20718;-79
2023/09/25 04:06:25;;;;;;;2.70;2.50;;;;;;;;;;4942641;28;20253;-78
2023/09/25 04:08:51;;;;;;;2.83;2.63;;;;;;;;;;4957242;28;20329;-79
2023/09/25 04:11:18;;;;;;;3.07;2.60;;;;;;;;;;4973911;28;20230;-78
2023/09/25 04:13:48;;;;;;;2.83;2.63;;;;;;;;;;4956521;28;20234;-78
2023/09/25 04:16:14;;;;;;;2.80;2.60;;;;;;;;;;4958155;28;20215;-78
2023/09/25 04:18:42;;;;;;;2.60;2.40;;;;;;;;;;4960287;28;20289;-78
2023/09/25 04:21:11;;;;;;;2.67;2.47;;;;;;;;;;4960262;28;20231;-80
2023/09/25 04:23:36;;;;;;;2.93;2.73;;;;;;;;;;4962512;28;20230;-79
2023/09/25 04:26:03;;;;;;;2.87;2.63;;;;;;;;;;4940430;28;20317;-78
2023/09/25 04:28:29;;;;;;;2.60;2.50;;;;;;;;;;4970043;28;20230;-78
2023/09/25 04:30:59;;;;;;;2.93;2.73;;;;;;;;;;4956508;28;20263;-79
2023/09/25 04:33:26;;;;;;;2.83;2.63;;;;;;;;;;4955507;28;20231;-79
2023/09/25 04:35:55;;;;;;;3.53;2.50;;;;;;;;;;4966337;28;20235;-78
2023/09/25 04:38:21;;;;;;;4.93;3.20;;;;;;;;;;4942440;28;20229;-79
2023/09/25 04:40:47;;;;;;;3.73;2.83;;;;;;;;;;4935278;28;20294;-79
2023/09/25 04:43:17;;;;;;;3.03;2.83;;;;;;;;;;4927044;28;20227;-79
2023/09/25 04:45:45;;;;;;;4.00;2.50;;;;;;;;;;4961854;28;20261;-79
2023/09/25 04:48:10;;;;;;;3.00;2.40;;;;;;;;;;4936358;28;20740;-78
2023/09/25 04:50:37;;;;;;;3.13;2.90;;;;;;;;;;4968636;28;20242;-78
2023/09/25 04:53:02;;;;;;;5.80;4.47;;;;;;;;;;4936147;28;20226;-78
2023/09/25 04:55:28;;;;;;;2.77;2.57;;;;;;;;;;4947520;28;20226;-79
2023/09/25 04:57:53;;;;;;;3.80;2.90;;;;;;;;;;4959553;28;20495;-79
2023/09/25 05:00:24;;;;;;;4.03;3.20;;;;;;;;;;4956626;28;20223;-79
2023/09/25 05:02:52;;;;;;;2.67;2.47;;;;;;;;;;4926688;29;20293;-79
2023/09/25 05:05:23;;;;;;;2.77;2.57;;;;;;;;;;4942887;28;20246;-78
2023/09/25 05:07:53;;;;;;;2.93;2.47;;;;;;;;;;4951373;29;20261;-78
2023/09/25 05:10:22;;;;;;;3.40;2.93;;;;;;;;;;4949287;28;20234;-79
2023/09/25 05:12:50;;;;;;;3.30;3.10;;;;;;;;;;4958747;28;20256;-77
2023/09/25 05:15:16;;;;;;;3.07;2.87;;;;;;;;;;4949489;28;20719;-78
2023/09/25 05:17:42;;;;;;;3.03;2.83;;;;;;;;;;4941838;28;20230;-78
2023/09/25 05:20:11;;;;;;;2.97;2.77;;;;;;;;;;4955976;28;20231;-78
2023/09/25 05:22:40;;;;;;;4.30;3.90;;;;;;;;;;4921730;29;20228;-78
2023/09/25 05:25:09;;;;;;;3.43;3.23;;;;;;;;;;4940652;28;20675;-79
2023/09/25 05:27:39;;;;;;;7.33;4.10;;;;;;;;;;4956935;28;20819;-78
2023/09/25 05:30:06;;;;;;;4.03;3.73;;;;;;;;;;4939258;28;20239;-78
2023/09/25 05:32:37;;;;;;;3.77;3.47;;;;;;;;;;4958129;28;20242;-78
2023/09/25 05:35:06;;;;;;;3.77;3.47;;;;;;;;;;4969936;28;20291;-78
2023/09/25 05:37:32;;;;;;;4.00;3.70;;;;;;;;;;4949158;28;20247;-78
2023/09/25 05:39:58;;;;;;;5.63;3.53;;;;;;;;;;4967644;28;20243;-78
2023/09/25 05:42:24;;;;;;;3.30;3.10;;;;;;;;;;4970443;28;20235;-78
2023/09/25 05:44:50;;;;;;;3.30;3.00;;;;;;;;;;4954201;28;20227;-78
2023/09/25 05:47:16;;;;;;;2.80;2.60;;;;;;;;;;4969670;28;20222;-78
2023/09/25 05:49:42;;;;;;;6.20;3.13;;;;;;;;;;4956440;28;20230;-78
2023/09/25 05:52:09;;;;;;;2.70;2.60;;;;;;;;;;4954454;28;20293;-78
2023/09/25 05:54:38;;;;;;;3.30;3.10;;;;;;;;;;4957270;28;20834;-78
2023/09/25 05:57:06;;;;;;;3.00;2.80;;;;;;;;;;4957481;28;20310;-80
2023/09/25 05:59:34;;;;;;;5.50;5.07;;;;;;;;;;4959117;28;20222;-79
2023/09/25 06:02:02;;;;;;;3.67;3.37;;;;;;;;;;4964583;28;20231;-79
2023/09/25 06:04:28;;;;;;;4.83;2.73;;;;;;;;;;4959653;28;20225;-78
2023/09/25 06:06:56;;;;;;;2.77;2.57;;;;;;;;;;4937822;28;20307;-79
2023/09/25 06:09:22;;;;;;;2.27;2.17;;;;;;;;;;4956791;28;20231;-79
2023/09/25 06:11:48;;;;;;;2.83;2.63;;;;;;;;;;4934760;29;20235;-78
2023/09/25 06:14:13;;;;;;;2.70;2.50;;;;;;;;;;4933968;28;20219;-78
2023/09/25 06:16:41;;;;;;;2.87;2.67;;;;;;;;;;4972256;28;20233;-79
2023/09/25 06:19:19;;;;;;;3.57;2.50;;;;;;;;;;4963152;28;20222;-79
2023/09/25 06:21:45;;;;;;;2.60;2.40;;;;;;;;;;4959149;28;20321;-79
2023/09/25 06:24:12;;;;;;;2.77;2.57;;;;;;;;;;4956326;28;20215;-78
2023/09/25 06:26:42;;;;;;;2.27;2.13;;;;;;;;;;4940431;28;20222;-78
2023/09/25 06:29:28;;;;;;;2.30;2.20;;;;;;;;;;4960412;28;20223;-80
2023/09/25 06:31:53;;;;;;;1.90;1.80;;;;;;;;;;4955935;28;20223;-78
2023/09/25 06:34:19;;;;;;;3.83;1.70;;;;;;;;;;4938872;28;20210;-79
2023/09/25 06:36:44;;;;;;;2.40;2.10;;;;;;;;;;4940988;29;20426;-79
2023/09/25 06:39:14;;;;;;;2.00;1.90;;;;;;;;;;4937843;28;20219;-79
2023/09/25 06:41:41;;;;;;;2.60;2.00;;;;;;;;;;4956252;28;20244;-79
2023/09/25 06:44:22;;;;;;;1.90;1.80;;;;;;;;;;4921722;28;20298;-79
2023/09/25 06:46:47;;;;;;;2.37;1.90;;;;;;;;;;4940384;28;20234;-79
2023/09/25 06:49:13;;;;;;;2.00;1.80;;;;;;;;;;4922539;28;20228;-79
2023/09/25 06:51:39;;;;;;;1.77;1.57;;;;;;;;;;4923624;29;20228;-79
2023/09/25 06:54:04;;;;;;;1.97;1.80;;;;;;;;;;4921622;28;20228;-78
2023/09/25 06:56:32;;;;;;;4.70;1.80;;;;;;;;;;4957035;28;20238;-79
2023/09/25 06:59:02;;;;;;;2.17;1.73;;;;;;;;;;4956345;28;20282;-79
2023/09/25 07:01:28;;;;;;;2.47;1.90;;;;;;;;;;4924266;29;20231;-79
2023/09/25 07:03:56;;;;;;;2.47;1.63;;;;;;;;;;4959506;28;20594;-79
2023/09/25 07:06:24;;;;;;;2.00;1.80;;;;;;;;;;4955435;28;20219;-79
2023/09/25 07:08:52;;;;;;;1.70;1.50;;;;;;;;;;4972177;28;20649;-78
2023/09/25 07:11:18;;;;;;;1.60;1.47;;;;;;;;;;4956970;28;20238;-78
2023/09/25 07:13:44;;;;;;;1.60;1.50;;;;;;;;;;4903039;29;20278;-79
2023/09/25 07:16:10;;;;;;;2.07;1.63;;;;;;;;;;4953534;28;20223;-80
2023/09/25 07:18:39;;;;;;;2.60;1.67;;;;;;;;;;4938721;28;20265;-79
2023/09/25 07:21:05;;;;;;;1.67;1.57;;;;;;;;;;4968012;28;20231;-80
2023/09/25 07:23:31;;;;;;;1.67;1.57;;;;;;;;;;4938766;29;20227;-80
2023/09/25 07:26:07;;;;;;;2.33;1.60;;;;;;;;;;4952476;28;20311;-79
2023/09/25 07:28:33;;;;;;;1.50;1.40;;;;;;;;;;4955669;28;20234;-80
2023/09/25 07:31:00;;;;;;;1.83;1.50;;;;;;;;;;4930683;29;20265;-79
2023/09/25 07:33:30;;;;;;;2.10;1.57;;;;;;;;;;4945539;28;20281;-80
2023/09/25 07:35:55;;;;;;;1.67;1.58;;;;;;;;;;4933660;28;20226;-79
2023/09/25 07:38:24;;;;;;;1.73;1.60;;;;;;;;;;4971966;28;21746;-79
2023/09/25 07:40:50;;;;;;;1.55;1.45;;;;;;;;;;4956639;28;20341;-79
2023/09/25 07:43:23;;;;;;;2.10;1.90;;;;;;;;;;4973876;28;20226;-79
2023/09/25 07:45:48;;;;;;;1.30;1.30;;;;;;;;;;4925056;29;20290;-79
2023/09/25 07:48:22;;;;;;;4.55;1.80;;;;;;;;;;4938024;28;20235;-79
2023/09/25 07:50:55;;;;;;;1.77;1.55;;;;;;;;;;4955575;28;20238;-80
2023/09/25 07:53:21;;;;;;;1.77;1.65;;;;;;;;;;4970684;28;20223;-78
2023/09/25 07:55:49;;;;;;;2.65;1.40;;;;;;;;;;4957557;28;20234;-78
2023/09/25 07:58:14;;;;;;;1.77;1.20;;;;;;;;;;4935292;28;20282;-80
2023/09/25 08:00:44;;;;;;;1.48;1.20;;;;;;;;;;4968454;28;20225;-78
2023/09/25 08:03:10;;;;;;;1.38;1.27;;;;;;;;;;4938083;28;20989;-78
2023/09/25 08:05:36;;;;;;;3.17;1.23;;;;;;;;;;4959690;28;20210;-78
2023/09/25 08:08:02;;;;;;;1.63;1.30;;;;;;;;;;4945987;28;20281;-78
2023/09/25 08:10:27;;;;;;;2.45;1.20;;;;;;;;;;4935389;28;20572;-78
2023/09/25 08:12:55;;;;;;;1.63;1.17;;;;;;;;;;4949863;28;20605;-78
2023/09/25 08:15:22;;;;;;;1.25;1.15;;;;;;;;;;4935613;28;20226;-78
2023/09/25 08:17:53;;;;;;;1.42;1.30;;;;;;;;;;4937095;29;20237;-78
2023/09/25 08:20:22;;;;;;;1.23;1.00;;;;;;;;;;4969907;28;20246;-79
2023/09/25 08:22:53;;;;;;;4.85;1.20;;;;;;;;;;4946945;28;20216;-78
2023/09/25 08:25:19;;;;;;;1.42;1.33;;;;;;;;;;4954832;28;20223;-78
2023/09/25 08:27:45;;;;;;;2.00;1.90;;;;;;;;;;4920637;28;20246;-79
2023/09/25 08:30:11;;;;;;;3.20;3.00;;;;;;;;;;4952341;28;20239;-79
2023/09/25 08:32:39;;;;;;;2.40;1.98;;;;;;;;;;4939722;28;20221;-79
2023/09/25 08:35:05;;;;;;;2.75;1.42;;;;;;;;;;4955507;28;20223;-77
2023/09/25 08:37:33;;;;;;;1.77;1.00;;;;;;;;;;4939473;28;20206;-78
2023/09/25 08:39:58;;;;;;;1.23;1.13;;;;;;;;;;4959571;28;20883;-77
2023/09/25 08:42:33;;;;;;;1.40;1.10;;;;;;;;;;4963241;28;20218;-78
2023/09/25 08:45:02;;;;;;;1.88;1.30;;;;;;;;;;4929846;28;20230;-79
2023/09/25 08:47:31;;;;;;;1.13;1.02;;;;;;;;;;4951629;29;20223;-79
2023/09/25 08:49:59;;;;;;;1.35;1.02;;;;;;;;;;4945663;29;20254;-78
2023/09/25 08:52:25;;;;;;;1.20;1.13;;;;;;;;;;4976833;28;20349;-79
2023/09/25 08:54:51;;;;;;;0.90;0.90;;;;;;;;;;4974259;28;20295;-79
2023/09/25 08:57:17;;;;;;;1.58;1.10;;;;;;;;;;4943862;28;20226;-79
2023/09/25 08:59:47;;;;;;;1.52;1.10;;;;;;;;;;4938145;29;20226;-79
2023/09/25 09:02:13;;;;;;;2.80;1.33;;;;;;;;;;4958610;28;20231;-80
2023/09/25 09:04:39;;;;;;;1.02;1.00;;;;;;;;;;4931058;28;20302;-79
2023/09/25 09:07:05;;;;;;;1.77;1.00;;;;;;;;;;4936905;28;20714;-79
2023/09/25 09:09:31;;;;;;;1.38;1.10;;;;;;;;;;4952140;28;20231;-79
2023/09/25 09:11:59;;;;;;;1.05;0.95;;;;;;;;;;4956295;28;20233;-79
2023/09/25 09:14:49;;;;;;;1.88;1.13;;;;;;;;;;4939574;28;20234;-79
2023/09/25 09:17:14;;;;;;;1.77;1.27;;;;;;;;;;4959265;28;20246;-79
2023/09/25 09:19:46;;;;;;;1.88;0.95;;;;;;;;;;4927761;28;20598;-78
2023/09/25 09:22:16;;;;;;;1.58;1.20;;;;;;;;;;4959489;28;20227;-79
2023/09/25 09:24:43;;;;;;;2.15;1.20;;;;;;;;;;4926604;29;20222;-78
2023/09/25 09:27:08;;;;;;;2.25;1.00;;;;;;;;;;4959058;28;20223;-78
2023/09/25 09:29:39;;;;;;;1.35;1.00;;;;;;;;;;4975548;28;20335;-79
2023/09/25 09:32:09;;;;;;;1.67;1.20;;;;;;;;;;4953575;28;20578;-79
2023/09/25 09:34:40;;;;;;;3.85;1.15;;;;;;;;;;4961500;28;20226;-79
2023/09/25 09:37:08;;;;;;;1.17;1.08;;;;;;;;;;4977232;28;20226;-80
2023/09/25 09:39:37;;;;;;;1.17;1.08;;;;;;;;;;4973998;28;20902;-79
2023/09/25 09:42:08;;;;;;;2.13;1.02;;;;;;;;;;4944394;28;20266;-78
2023/09/25 09:44:38;;;;;;;1.60;0.95;;;;;;;;;;4942349;29;20296;-78
2023/09/25 09:47:05;;;;;;;0.80;0.80;;;;;;;;;;4939534;28;20258;-78
2023/09/25 09:49:34;;;;;;;3.13;1.15;;;;;;;;;;4972063;28;20688;-79
2023/09/25 09:52:01;;;;;;;0.90;0.90;;;;;;;;;;4956589;28;20282;-79
2023/09/25 09:54:29;;;;;;;1.77;1.10;;;;;;;;;;4957042;28;20225;-79
2023/09/25 09:57:00;;;;;;;1.00;0.98;;;;;;;;;;4956144;28;20632;-80
2023/09/25 09:59:25;;;;;;;1.20;1.10;;;;;;;;;;4956706;28;20242;-80
2023/09/25 10:01:51;;;;;;;1.30;1.20;;;;;;;;;;4926733;29;20293;-80
2023/09/25 10:04:20;;;;;;;1.45;1.10;;;;;;;;;;4942380;28;20770;-79
2023/09/25 10:07:08;;;;;;;1.45;1.20;;;;;;;;;;4942073;28;20238;-79
2023/09/25 10:09:37;;;;;;;1.17;1.00;;;;;;;;;;4931646;29;20248;-78
2023/09/25 10:12:03;;;;;;;3.13;1.40;;;;;;;;;;4951378;28;20219;-79
2023/09/25 10:14:30;;;;;;;1.58;0.80;;;;;;;;;;4955050;28;20223;-79
2023/09/25 10:17:05;;;;;;;1.25;1.10;;;;;;;;;;4909802;29;20560;-81
2023/09/25 10:19:40;;;;;;;1.20;0.95;;;;;;;;;;4928863;28;20259;-77
2023/09/25 10:22:18;;;;;;;1.10;1.10;;;;;;;;;;4935941;28;20234;-77
2023/09/25 10:24:48;;;;;;;1.00;1.00;;;;;;;;;;4956099;28;20222;-78
2023/09/25 10:27:17;;;;;;;0.88;0.82;;;;;;;;;;4952816;28;20816;-77
2023/09/25 10:30:07;;;;;;;1.55;1.15;;;;;;;;;;4956494;28;20234;-80
2023/09/25 10:32:36;;;;;;;1.05;0.93;;;;;;;;;;4956693;28;20222;-78
2023/09/25 10:35:39;;;;;;;1.77;1.00;;;;;;;;;;4956599;28;20210;-79
2023/09/25 10:38:18;;;;;;;1.27;1.10;;;;;;;;;;4972620;28;20317;-78
2023/09/25 10:40:50;;;;;;;1.10;1.00;;;;;;;;;;4957242;28;20237;-78
2023/09/25 10:43:22;;;;;;;1.60;1.35;;;;;;;;;;4938002;28;20230;-78
2023/09/25 10:45:47;;;;;;;0.88;0.88;;;;;;;;;;4952849;28;20223;-78
2023/09/25 10:48:13;;;;;;;2.15;1.20;;;;;;;;;;4939656;28;20215;-78
2023/09/25 10:50:40;;;;;;;1.92;1.02;;;;;;;;;;4959344;28;20227;-80
2023/09/25 10:53:06;;;;;;;2.10;1.10;;;;;;;;;;4970249;28;20303;-78
2023/09/25 10:55:33;;;;;;;1.30;1.20;;;;;;;;;;4970408;28;20756;-78
2023/09/25 10:58:03;;;;;;;1.55;1.30;;;;;;;;;;4937662;28;20266;-78
2023/09/25 11:00:34;;;;;;;1.48;1.23;;;;;;;;;;4951100;28;20306;-77
2023/09/25 11:03:01;;;;;;;2.30;1.10;;;;;;;;;;4968540;28;20305;-77
2023/09/25 11:05:27;;;;;;;3.28;1.20;;;;;;;;;;4973432;28;20210;-78
2023/09/25 11:07:53;;;;;;;1.30;1.17;;;;;;;;;;4934777;29;20222;-78
2023/09/25 11:10:21;;;;;;;0.88;0.85;;;;;;;;;;4956731;28;20219;-78
2023/09/25 11:12:47;;;;;;;4.55;1.13;;;;;;;;;;4955500;28;20622;-78
2023/09/25 11:15:21;;;;;;;1.10;1.00;;;;;;;;;;4943360;28;20222;-78
2023/09/25 11:17:49;;;;;;;1.20;1.10;;;;;;;;;;4951380;28;20226;-78
2023/09/25 11:20:22;;;;;;;1.23;1.10;;;;;;;;;;4971040;28;20635;-79
2023/09/25 11:22:50;;;;;;;1.85;1.20;;;;;;;;;;4973041;28;20222;-79
2023/09/25 11:25:21;;;;;;;3.28;0.82;;;;;;;;;;4972692;28;20214;-79
2023/09/25 11:27:56;;;;;;;1.23;1.13;;;;;;;;;;4971699;28;20372;-78
2023/09/25 11:30:26;;;;;;;0.82;0.82;;;;;;;;;;4955641;28;20234;-79
2023/09/25 11:32:52;;;;;;;0.95;0.90;;;;;;;;;;4939262;29;20215;-79
2023/09/25 11:35:25;;;;;;;1.63;1.10;;;;;;;;;;4962901;28;20765;-78
2023/09/25 11:38:00;;;;;;;1.00;0.90;;;;;;;;;;4964459;28;20711;-78
2023/09/25 11:40:28;;;;;;;0.90;0.80;;;;;;;;;;4979193;28;20273;-79
2023/09/25 11:42:57;;;;;;;1.15;0.90;;;;;;;;;;4916061;29;20212;-78
2023/09/25 11:45:23;;;;;;;1.30;0.88;;;;;;;;;;4966785;28;20239;-78
2023/09/25 11:47:51;;;;;;;1.73;1.20;;;;;;;;;;4948582;28;20203;-78
2023/09/25 11:50:19;;;;;;;0.80;0.70;;;;;;;;;;4947929;28;20258;-77
2023/09/25 11:52:46;;;;;;;1.58;1.20;;;;;;;;;;4948687;28;20545;-78
2023/09/25 11:55:15;;;;;;;1.27;1.15;;;;;;;;;;4932036;28;20229;-78
2023/09/25 11:57:46;;;;;;;1.23;1.13;;;;;;;;;;4948493;28;20251;-80
2023/09/25 12:00:15;;;;;;;1.23;0.90;;;;;;;;;;4981001;28;21081;-79
2023/09/25 12:02:46;;;;;;;1.13;1.10;;;;;;;;;;4959769;28;20305;-80
2023/09/25 12:05:14;;;;;;;1.00;0.90;;;;;;;;;;4958974;28;20301;-80
2023/09/25 12:07:46;;;;;;;1.27;0.90;;;;;;;;;;4945685;29;20282;-78
2023/09/25 12:10:12;;;;;;;1.42;1.00;;;;;;;;;;4926301;28;20651;-78
2023/09/25 12:12:41;;;;;;;2.30;1.20;;;;;;;;;;4941528;28;20234;-79
2023/09/25 12:15:07;;;;;;;0.88;0.80;;;;;;;;;;4960001;28;20206;-79
2023/09/25 12:17:35;;;;;;;0.90;0.90;;;;;;;;;;4939978;29;20218;-79
2023/09/25 12:20:23;;;;;;;1.10;1.00;;;;;;;;;;4921782;28;20310;-78
2023/09/25 12:22:53;;;;;;;1.35;1.13;;;;;;;;;;4952561;28;20283;-78
2023/09/25 12:25:21;;;;;;;1.05;0.95;;;;;;;;;;4920982;28;20309;-79
2023/09/25 12:27:47;;;;;;;2.70;1.35;;;;;;;;;;4935541;28;20245;-78
2023/09/25 12:30:16;;;;;;;5.18;1.10;;;;;;;;;;4926333;28;20904;-79
2023/09/25 12:32:45;;;;;;;1.75;1.02;;;;;;;;;;4934316;29;20215;-78
2023/09/25 12:35:18;;;;;;;1.00;1.00;;;;;;;;;;4955708;28;20257;-78
2023/09/25 12:37:47;;;;;;;1.17;1.10;;;;;;;;;;4955058;28;20318;-79
2023/09/25 12:40:15;;;;;;;0.88;0.88;;;;;;;;;;4963205;28;20246;-79
2023/09/25 12:42:44;;;;;;;1.25;1.02;;;;;;;;;;4939098;28;20218;-79
2023/09/25 12:45:11;;;;;;;2.28;0.98;;;;;;;;;;4971994;28;20230;-78
2023/09/25 12:47:36;;;;;;;1.50;1.30;;;;;;;;;;4959555;29;20259;-77
2023/09/25 12:50:02;;;;;;;1.35;1.02;;;;;;;;;;4927817;29;20225;-78
2023/09/25 12:52:30;;;;;;;1.45;1.02;;;;;;;;;;4941064;29;20274;-80
2023/09/25 12:54:56;;;;;;;2.70;1.17;;;;;;;;;;4957786;28;20219;-79
2023/09/25 12:57:22;;;;;;;1.30;1.20;;;;;;;;;;4969698;28;20591;-79
2023/09/25 12:59:50;;;;;;;1.02;0.88;;;;;;;;;;4958660;28;20289;-79
2023/09/25 13:02:16;;;;;;;1.20;1.10;;;;;;;;;;4969820;28;20219;-79
2023/09/25 13:04:44;;;;;;;2.03;1.30;;;;;;;;;;4955777;28;20230;-78
2023/09/25 13:07:12;;;;;;;1.17;0.90;;;;;;;;;;4975338;28;20258;-79
2023/09/25 13:09:37;;;;;;;1.83;1.17;;;;;;;;;;4967326;28;20289;-80
2023/09/25 13:12:03;;;;;;;0.90;0.88;;;;;;;;;;4927164;28;20325;-79
2023/09/25 13:14:31;;;;;;;1.70;1.13;;;;;;;;;;4959084;28;20223;-79
2023/09/25 13:16:56;;;;;;;1.45;1.20;;;;;;;;;;4946085;29;20223;-80
2023/09/25 13:19:27;;;;;;;2.28;1.30;;;;;;;;;;4960713;28;20242;-81
2023/09/25 13:21:52;;;;;;;1.08;1.00;;;;;;;;;;4944526;28;20238;-81
2023/09/25 13:24:24;;;;;;;3.47;1.30;;;;;;;;;;4958767;28;20235;-80
2023/09/25 13:26:52;;;;;;;2.72;1.00;;;;;;;;;;4976227;28;20720;-80
2023/09/25 13:29:20;;;;;;;1.95;0.95;;;;;;;;;;4976086;28;20283;-82
2023/09/25 13:31:46;;;;;;;1.17;1.08;;;;;;;;;;4942404;29;20227;-80
2023/09/25 13:34:11;;;;;;;1.67;0.98;;;;;;;;;;4960578;28;20214;-80
2023/09/25 13:36:37;;;;;;;2.65;1.13;;;;;;;;;;4947407;29;20222;-80
2023/09/25 13:39:02;;;;;;;1.40;1.05;;;;;;;;;;4937952;29;20218;-80
2023/09/25 13:41:29;;;;;;;1.20;1.10;;;;;;;;;;4964293;28;20241;-80
2023/09/25 13:43:54;;;;;;;1.98;0.90;;;;;;;;;;4973428;28;20251;-79
2023/09/25 13:46:24;;;;;;;1.27;1.17;;;;;;;;;;4977065;28;20599;-80
2023/09/25 13:48:52;;;;;;;1.15;1.05;;;;;;;;;;4959900;28;20234;-81
2023/09/25 13:51:18;;;;;;;1.30;1.20;;;;;;;;;;4975566;28;20267;-79
2023/09/25 13:53:45;;;;;;;1.42;1.33;;;;;;;;;;4963770;28;20322;-82
2023/09/25 13:56:11;;;;;;;1.13;1.13;;;;;;;;;;4945287;28;20554;-80
2023/09/25 13:58:37;;;;;;;1.20;1.10;;;;;;;;;;4960883;28;20234;-81
2023/09/25 14:01:03;;;;;;;1.63;1.13;;;;;;;;;;4958433;28;20278;-80
2023/09/25 14:03:28;;;;;;;1.58;1.20;;;;;;;;;;4958753;28;20222;-81
2023/09/25 14:05:54;;;;;;;1.25;1.15;;;;;;;;;;4960966;28;20223;-79
2023/09/25 14:08:22;;;;;;;3.10;1.05;;;;;;;;;;4930114;28;20223;-79
2023/09/25 14:10:47;;;;;;;1.85;1.13;;;;;;;;;;4977233;28;20581;-79
2023/09/25 14:13:17;;;;;;;1.38;1.10;;;;;;;;;;4975608;28;20226;-80
2023/09/25 14:15:45;;;;;;;1.10;1.02;;;;;;;;;;4942072;28;20326;-80
2023/09/25 14:18:13;;;;;;;2.55;1.27;;;;;;;;;;4926624;28;20245;-80
2023/09/25 14:20:39;;;;;;;2.92;1.15;;;;;;;;;;4952138;28;20604;-81
2023/09/25 14:23:04;;;;;;;1.08;1.00;;;;;;;;;;4959948;28;20221;-79
2023/09/25 14:25:32;;;;;;;1.38;1.20;;;;;;;;;;4970682;28;20223;-80
2023/09/25 14:28:00;;;;;;;1.90;1.13;;;;;;;;;;4955553;28;20206;-79
2023/09/25 14:30:26;;;;;;;1.05;0.98;;;;;;;;;;4947111;28;20235;-78
2023/09/25 14:32:51;;;;;;;1.42;1.17;;;;;;;;;;4939480;28;20235;-80
2023/09/25 14:35:17;;;;;;;1.27;1.10;;;;;;;;;;4934465;28;20219;-79
2023/09/25 14:37:45;;;;;;;1.85;1.23;;;;;;;;;;4962979;28;20712;-80
2023/09/25 14:40:11;;;;;;;2.03;1.20;;;;;;;;;;4963241;28;20221;-81
2023/09/25 14:42:37;;;;;;;1.00;0.90;;;;;;;;;;4963044;28;20261;-80
2023/09/25 14:45:05;;;;;;;2.42;1.33;;;;;;;;;;4947619;28;20247;-81
2023/09/25 14:47:31;;;;;;;1.10;1.10;;;;;;;;;;4951074;28;20293;-81
2023/09/25 14:49:59;;;;;;;2.08;1.00;;;;;;;;;;4953790;28;20286;-81
2023/09/25 14:52:28;;;;;;;1.20;1.10;;;;;;;;;;4961947;28;20242;-80